Time;durP1;ratioP1;P1;durP2;ratioP2;P2;SDS_P1;SDS_P2;PMS_P1;PMS_P2;Temp;Humidity;BMP_temperature;BMP_pressure;BME280_temperature;BME280_humidity;BME280_pressure;Samples;Min_cycle;Max_cycle;Signal;HPM_P1;HPM_P2
2023/04/17 00:03:10;;;;;;;;;;;;;;;8.49;79.20117;102803.3;;;;-70
2023/04/17 00:06:12;;;;;;;17.9;8.7;;;;;;;;;;;;;-69
2023/04/17 00:08:09;;;;;;;;;;;;;;;8.47;78.92383;102801.7;;;;-68
2023/04/17 00:13:05;;;;;;;;;;;;;;;8.47;79.46387;102793;;;;-69
2023/04/17 00:18:05;;;;;;;;;;;;;;;8.47;78.77051;102797.6;;;;-69
2023/04/17 00:23:07;;;;;;;;;;;;;;;8.46;78.9209;102799.9;;;;-70
2023/04/17 00:28:08;;;;;;;;;;;;;;;8.45;79.04004;102801.8;;;;-69
2023/04/17 00:33:08;;;;;;;;;;;;;;;8.44;78.90625;102797.1;;;;-70
2023/04/17 00:36:14;;;;;;;18;8.1;;;;;;;;;;;;;-69
2023/04/17 00:38:08;;;;;;;;;;;;;;;8.42;78.99023;102799.9;;;;-69
2023/04/17 00:43:07;;;;;;;;;;;;;;;8.41;78.95703;102797.5;;;;-70
2023/04/17 00:48:06;;;;;;;;;;;;;;;8.4;79.59375;102795.8;;;;-69
2023/04/17 00:53:05;;;;;;;;;;;;;;;8.39;79.00879;102799.4;;;;-70
2023/04/17 00:58:05;;;;;;;;;;;;;;;8.38;79.50098;102797.4;;;;-69
2023/04/17 01:03:09;;;;;;;;;;;;;;;8.38;78.88574;102793.2;;;;-69
2023/04/17 01:06:15;;;;;;;15.8;7.9;;;;;;;;;;;;;-70
2023/04/17 01:08:10;;;;;;;;;;;;;;;8.37;79.14844;102789.6;;;;-69
2023/04/17 01:13:08;;;;;;;;;;;;;;;8.35;79.63867;102791.6;;;;-70
2023/04/17 01:18:08;;;;;;;;;;;;;;;8.34;79.78027;102791.4;;;;-70
2023/04/17 01:23:07;;;;;;;;;;;;;;;8.32;79.52246;102793.1;;;;-70
2023/04/17 01:28:08;;;;;;;;;;;;;;;8.31;79.6416;102790.5;;;;-70
2023/04/17 01:33:08;;;;;;;;;;;;;;;8.3;79.34473;102789.7;;;;-70
2023/04/17 01:36:16;;;;;;;17.5;8.7;;;;;;;;;;;;;-72
2023/04/17 01:38:09;;;;;;;;;;;;;;;8.29;79.41797;102788.5;;;;-68
2023/04/17 01:43:08;;;;;;;;;;;;;;;8.28;79.30762;102795.9;;;;-69
2023/04/17 01:48:05;;;;;;;;;;;;;;;8.29;79.25293;102787.9;;;;-70
2023/04/17 01:53:05;;;;;;;;;;;;;;;8.28;79.19629;102788.6;;;;-70
2023/04/17 01:58:05;;;;;;;;;;;;;;;8.27;79.37109;102791.8;;;;-70
2023/04/17 02:03:08;;;;;;;;;;;;;;;8.27;79.65723;102795.4;;;;-69
2023/04/17 02:06:17;;;;;;;18.2;8.9;;;;;;;;;;;;;-69
2023/04/17 02:08:08;;;;;;;;;;;;;;;8.25;79.97266;102794.2;;;;-68
2023/04/17 02:13:05;;;;;;;;;;;;;;;8.26;79.87695;102798.3;;;;-70
2023/04/17 02:18:08;;;;;;;;;;;;;;;8.25;79.74121;102796.9;;;;-70
2023/04/17 02:23:05;;;;;;;;;;;;;;;8.25;80.11621;102798.9;;;;-69
2023/04/17 02:28:05;;;;;;;;;;;;;;;8.25;79.57617;102794.2;;;;-70
2023/04/17 02:33:06;;;;;;;;;;;;;;;8.25;79.3125;102793.3;;;;-70
2023/04/17 02:36:18;;;;;;;18.8;8.4;;;;;;;;;;;;;-69
2023/04/17 02:38:05;;;;;;;;;;;;;;;8.25;79.4541;102789.8;;;;-69
2023/04/17 02:43:05;;;;;;;;;;;;;;;8.22;79.4834;102785.5;;;;-69
2023/04/17 02:48:05;;;;;;;;;;;;;;;8.23;79.24316;102788.6;;;;-69
2023/04/17 02:53:08;;;;;;;;;;;;;;;8.22;79.82422;102787.6;;;;-72
2023/04/17 02:58:05;;;;;;;;;;;;;;;8.22;79.49414;102788.2;;;;-69
2023/04/17 03:03:06;;;;;;;;;;;;;;;8.21;79.67969;102790.3;;;;-69
2023/04/17 03:06:20;;;;;;;20.3;8.5;;;;;;;;;;;;;-70
2023/04/17 03:08:05;;;;;;;;;;;;;;;8.22;79.44922;102790.3;;;;-69
2023/04/17 03:13:08;;;;;;;;;;;;;;;8.22;79.25195;102790.7;;;;-69
2023/04/17 03:18:05;;;;;;;;;;;;;;;8.2;79.60156;102795.7;;;;-70
2023/04/17 03:23:07;;;;;;;;;;;;;;;8.21;79.63379;102796.3;;;;-71
2023/04/17 03:28:05;;;;;;;;;;;;;;;8.19;79.66406;102798.8;;;;-70
2023/04/17 03:33:05;;;;;;;;;;;;;;;8.18;79.62891;102797.4;;;;-70
2023/04/17 03:36:20;;;;;;;17.3;8.6;;;;;;;;;;;;;-70
2023/04/17 03:38:07;;;;;;;;;;;;;;;8.18;79.79395;102800;;;;-71
2023/04/17 03:43:05;;;;;;;;;;;;;;;8.17;80.0459;102799.9;;;;-71
2023/04/17 03:48:08;;;;;;;;;;;;;;;8.17;79.38574;102803.9;;;;-70
2023/04/17 03:53:05;;;;;;;;;;;;;;;8.14;79.5127;102805.3;;;;-70
2023/04/17 03:58:05;;;;;;;;;;;;;;;8.13;79.98535;102804.9;;;;-70
2023/04/17 04:03:08;;;;;;;;;;;;;;;8.13;79.84082;102808.7;;;;-69
2023/04/17 04:06:22;;;;;;;17.2;8.4;;;;;;;;;;;;;-70
2023/04/17 04:08:05;;;;;;;;;;;;;;;8.11;79.87109;102812.9;;;;-70
2023/04/17 04:13:05;;;;;;;;;;;;;;;8.11;79.68359;102814.9;;;;-69
2023/04/17 04:18:05;;;;;;;;;;;;;;;8.09;79.67871;102813.1;;;;-70
2023/04/17 04:23:05;;;;;;;;;;;;;;;8.08;79.62402;102814.9;;;;-70
2023/04/17 04:28:05;;;;;;;;;;;;;;;8.09;79.98633;102816.8;;;;-69
2023/04/17 04:33:07;;;;;;;;;;;;;;;8.08;79.67676;102818.7;;;;-68
2023/04/17 04:38:05;;;;;;;;;;;;;;;8.08;79.91895;102821.6;;;;-69
2023/04/17 04:43:05;;;;;;;;;;;;;;;8.06;79.55469;102822.4;;;;-69
2023/04/17 04:48:05;;;;;;;;;;;;;;;8.07;79.96191;102822;;;;-69
2023/04/17 04:53:06;;;;;;;;;;;;;;;8.05;79.69434;102824.2;;;;-69
2023/04/17 04:58:05;;;;;;;;;;;;;;;8.05;79.55273;102825.2;;;;-69
2023/04/17 05:03:05;;;;;;;;;;;;;;;8.05;79.64941;102833.1;;;;-70
2023/04/17 05:06:24;;;;;;;16.7;8.2;;;;;;;;;;;;;-69
2023/04/17 05:08:06;;;;;;;;;;;;;;;8.05;79.38574;102832.4;;;;-70
2023/04/17 05:13:05;;;;;;;;;;;;;;;8.07;79.29004;102835.8;;;;-69
2023/04/17 05:18:05;;;;;;;;;;;;;;;8.08;79.86523;102839.3;;;;-69
2023/04/17 05:23:08;;;;;;;;;;;;;;;8.08;79.53418;102842.7;;;;-70
2023/04/17 05:28:05;;;;;;;;;;;;;;;8.08;79.85449;102850;;;;-69
2023/04/17 05:33:05;;;;;;;;;;;;;;;8.09;79.71191;102860.7;;;;-70
2023/04/17 05:36:25;;;;;;;16.6;8.2;;;;;;;;;;;;;-69
2023/04/17 05:38:06;;;;;;;;;;;;;;;8.09;79.60352;102863.6;;;;-68
2023/04/17 05:43:07;;;;;;;;;;;;;;;8.11;79.60449;102856.4;;;;-70
2023/04/17 05:48:07;;;;;;;;;;;;;;;8.13;79.25781;102859.7;;;;-69
2023/04/17 05:53:05;;;;;;;;;;;;;;;8.14;79.4248;102855.1;;;;-70
2023/04/17 05:58:05;;;;;;;;;;;;;;;8.16;79.51758;102860.1;;;;-69
2023/04/17 06:03:05;;;;;;;;;;;;;;;8.22;79.38281;102867;;;;-69
2023/04/17 06:06:26;;;;;;;18.7;9;;;;;;;;;;;;;-68
2023/04/17 06:08:05;;;;;;;;;;;;;;;8.23;79.15527;102874.4;;;;-68
2023/04/17 06:13:05;;;;;;;;;;;;;;;8.25;79.3125;102874.4;;;;-71
2023/04/17 06:18:05;;;;;;;;;;;;;;;8.27;79.38184;102878.3;;;;-71
2023/04/17 06:23:05;;;;;;;;;;;;;;;8.3;79.55371;102898.9;;;;-69
2023/04/17 06:28:05;;;;;;;;;;;;;;;8.32;79.28027;102902.2;;;;-70
2023/04/17 06:33:05;;;;;;;;;;;;;;;8.33;80.02051;102909.4;;;;-70
2023/04/17 06:36:30;;;;;;;21.3;10.5;;;;;;;;;;;;;-68
2023/04/17 06:38:05;;;;;;;;;;;;;;;8.34;79.89063;102909.9;;;;-70
2023/04/17 06:43:05;;;;;;;;;;;;;;;8.36;80.12695;102912.1;;;;-70
2023/04/17 06:48:05;;;;;;;;;;;;;;;8.4;80.04395;102907.3;;;;-69
2023/04/17 06:53:05;;;;;;;;;;;;;;;8.42;79.94824;102916.3;;;;-69
2023/04/17 06:58:06;;;;;;;;;;;;;;;8.45;79.85547;102919.2;;;;-70
2023/04/17 07:03:05;;;;;;;;;;;;;;;8.48;79.80664;102920;;;;-70
2023/04/17 07:06:28;;;;;;;21.8;10.3;;;;;;;;;;;;;-69
2023/04/17 07:08:05;;;;;;;;;;;;;;;8.52;80.34082;102918.3;;;;-69
2023/04/17 07:13:05;;;;;;;;;;;;;;;8.54;79.79492;102926.2;;;;-68
2023/04/17 07:18:05;;;;;;;;;;;;;;;8.57;79.9209;102930.3;;;;-70
2023/04/17 07:23:05;;;;;;;;;;;;;;;8.61;80.07227;102939.9;;;;-69
2023/04/17 07:28:05;;;;;;;;;;;;;;;8.65;81.19141;102943.3;;;;-69
2023/04/17 07:33:08;;;;;;;;;;;;;;;8.68;81.14355;102936.4;;;;-69
2023/04/17 07:36:30;;;;;;;21.2;11;;;;;;;;;;;;;-70
2023/04/17 07:38:05;;;;;;;;;;;;;;;8.75;81.44336;102943.3;;;;-70
2023/04/17 07:43:05;;;;;;;;;;;;;;;8.86;81.20898;102940.4;;;;-69
2023/04/17 07:48:05;;;;;;;;;;;;;;;8.98;81.24219;102940;;;;-68
2023/04/17 07:53:05;;;;;;;;;;;;;;;9.08;81.28223;102946.1;;;;-69
2023/04/17 07:58:05;;;;;;;;;;;;;;;9.17;81.11035;102940.8;;;;-69
2023/04/17 08:03:06;;;;;;;;;;;;;;;9.24;80.95898;102940.2;;;;-71
2023/04/17 08:06:31;;;;;;;21;10.4;;;;;;;;;;;;;-69
2023/04/17 08:08:05;;;;;;;;;;;;;;;9.3;80.75;102942.3;;;;-69
2023/04/17 08:13:05;;;;;;;;;;;;;;;9.34;80.47168;102946.1;;;;-68
2023/04/17 08:18:05;;;;;;;;;;;;;;;9.4;80.41504;102949.9;;;;-69
2023/04/17 08:23:05;;;;;;;;;;;;;;;9.46;80.65918;102951.3;;;;-69
2023/04/17 08:28:05;;;;;;;;;;;;;;;9.5;80.29199;102947;;;;-69
2023/04/17 08:33:05;;;;;;;;;;;;;;;9.57;79.94824;102950.2;;;;-69
2023/04/17 08:36:31;;;;;;;20.7;10.3;;;;;;;;;;;;;-69
2023/04/17 08:38:05;;;;;;;;;;;;;;;9.64;80.04102;102951.2;;;;-69
2023/04/17 08:43:06;;;;;;;;;;;;;;;9.72;80.39648;102954;;;;-69
2023/04/17 08:48:05;;;;;;;;;;;;;;;9.82;79.76465;102955.4;;;;-68
2023/04/17 08:53:05;;;;;;;;;;;;;;;9.93;79.85156;102954.8;;;;-69
2023/04/17 08:58:07;;;;;;;;;;;;;;;10.04;79.37402;102958.2;;;;-70
2023/04/17 09:03:06;;;;;;;;;;;;;;;10.18;79.06738;102964.6;;;;-68
2023/04/17 09:06:42;;;;;;;20.3;10.6;;;;;;;;;;;;;-70
2023/04/17 09:08:19;;;;;;;;;;;;;;;10.35;78.6875;102968;;;;-70
2023/04/17 09:13:05;;;;;;;;;;;;;;;10.46;78.37598;102974.7;;;;-69
2023/04/17 09:18:05;;;;;;;;;;;;;;;10.57;78.08594;102978.8;;;;-71
2023/04/17 09:23:06;;;;;;;;;;;;;;;10.67;78.05957;102982.4;;;;-69
2023/04/17 09:28:13;;;;;;;;;;;;;;;10.78;78.12305;102987.4;;;;-69
2023/04/17 09:33:12;;;;;;;;;;;;;;;10.91;77.63672;102991.7;;;;-69
2023/04/17 09:36:35;;;;;;;18.6;10.2;;;;;;;;;;;;;-75
2023/04/17 09:38:07;;;;;;;;;;;;;;;11.01;77.2666;102995.7;;;;-69
2023/04/17 09:43:06;;;;;;;;;;;;;;;11.12;76.9541;102995.5;;;;-69
2023/04/17 09:48:05;;;;;;;;;;;;;;;11.26;76.87695;102997.7;;;;-70
2023/04/17 09:53:08;;;;;;;;;;;;;;;11.43;76.61816;102994.1;;;;-70
2023/04/17 09:58:06;;;;;;;;;;;;;;;11.66;75.92676;102998.9;;;;-70
2023/04/17 10:03:05;;;;;;;;;;;;;;;11.88;75.55371;103003.6;;;;-69
2023/04/17 10:06:37;;;;;;;18.9;10.4;;;;;;;;;;;;;-70
2023/04/17 10:08:05;;;;;;;;;;;;;;;12.06;75.22754;103000.2;;;;-71
2023/04/17 10:13:08;;;;;;;;;;;;;;;12.09;75.17871;102992.3;;;;-69
2023/04/17 10:18:16;;;;;;;;;;;;;;;12.19;74.75098;102986.3;;;;-70
2023/04/17 10:23:15;;;;;;;;;;;;;;;12.36;74.33301;102981.6;;;;-69
2023/04/17 10:28:05;;;;;;;;;;;;;;;12.51;74.50391;102985.5;;;;-69
2023/04/17 10:33:18;;;;;;;;;;;;;;;12.76;74.61426;102983.6;;;;-69
2023/04/17 10:36:50;;;;;;;18.2;10.3;;;;;;;;;;;;;-69
2023/04/17 10:38:11;;;;;;;;;;;;;;;13.09;73.03223;102983.2;;;;-70
2023/04/17 10:43:14;;;;;;;;;;;;;;;13.3;72.76465;102981.9;;;;-69
2023/04/17 10:48:07;;;;;;;;;;;;;;;13.63;72.42773;102983.4;;;;-70
2023/04/17 10:53:05;;;;;;;;;;;;;;;13.83;71.4209;102982.4;;;;-69
2023/04/17 10:58:14;;;;;;;;;;;;;;;14.02;72.29102;102976.9;;;;-69
2023/04/17 11:03:06;;;;;;;;;;;;;;;14.44;72.0127;102973.7;;;;-68
2023/04/17 11:06:41;;;;;;;15.3;9.6;;;;;;;;;;;;;-69
2023/04/17 11:08:05;;;;;;;;;;;;;;;15.05;73.13281;102971.7;;;;-70
2023/04/17 11:13:05;;;;;;;;;;;;;;;15.47;73.68359;102965.2;;;;-70
2023/04/17 11:18:05;;;;;;;;;;;;;;;15.87;71.66211;102953;;;;-68
2023/04/17 11:23:08;;;;;;;;;;;;;;;16.38;74.25195;102949.1;;;;-68
2023/04/17 11:28:06;;;;;;;;;;;;;;;16.69;74.93164;102947.8;;;;-68
2023/04/17 11:33:09;;;;;;;;;;;;;;;16.81;76.79492;102951.7;;;;-68
2023/04/17 11:36:42;;;;;;;16.1;10.2;;;;;;;;;;;;;-68
2023/04/17 11:38:13;;;;;;;;;;;;;;;17.19;75.36523;102957.7;;;;-67
2023/04/17 11:43:05;;;;;;;;;;;;;;;17.72;77.12305;102954.1;;;;-68
2023/04/17 11:48:05;;;;;;;;;;;;;;;18.18;76.0293;102952.9;;;;-68
2023/04/17 11:53:05;;;;;;;;;;;;;;;18.51;76.4707;102953.9;;;;-69
2023/04/17 11:58:06;;;;;;;;;;;;;;;18.84;75.74609;102960.7;;;;-66
2023/04/17 12:03:05;;;;;;;;;;;;;;;19.02;73.51855;102955.8;;;;-69
2023/04/17 12:06:44;;;;;;;16.6;9.7;;;;;;;;;;;;;-68
2023/04/17 12:08:08;;;;;;;;;;;;;;;19.18;74.79785;102958.2;;;;-68
2023/04/17 12:13:05;;;;;;;;;;;;;;;19.33;77.62695;102961.7;;;;-68
2023/04/17 12:18:08;;;;;;;;;;;;;;;19.75;74.83887;102967.4;;;;-67
2023/04/17 12:23:04;;;;;;;;;;;;;;;19.73;75.13965;102967.4;;;;-68
2023/04/17 12:28:05;;;;;;;;;;;;;;;19.63;76.49219;102956.9;;;;-67
2023/04/17 12:33:05;;;;;;;;;;;;;;;19.9;76.56152;102954.9;;;;-67
2023/04/17 12:36:51;;;;;;;15.8;10.2;;;;;;;;;;;;;-68
2023/04/17 12:38:04;;;;;;;;;;;;;;;20.19;74.26758;102959.1;;;;-68
2023/04/17 12:43:07;;;;;;;;;;;;;;;20.39;75.40039;102954.2;;;;-68
2023/04/17 12:48:09;;;;;;;;;;;;;;;20.61;75.59473;102963.3;;;;-68
2023/04/17 12:53:05;;;;;;;;;;;;;;;20.61;76.1709;102965.4;;;;-68
2023/04/17 12:58:05;;;;;;;;;;;;;;;20.74;74.10742;102967.3;;;;-68
2023/04/17 13:03:05;;;;;;;;;;;;;;;20.87;73.5625;102964.4;;;;-68
2023/04/17 13:06:51;;;;;;;16.3;9.9;;;;;;;;;;;;;-68
2023/04/17 13:08:05;;;;;;;;;;;;;;;20.99;74.2168;102960.9;;;;-68
2023/04/17 13:13:05;;;;;;;;;;;;;;;21.16;74.66699;102954.3;;;;-67
2023/04/17 13:18:05;;;;;;;;;;;;;;;21.3;73.12207;102961.1;;;;-69
2023/04/17 13:23:05;;;;;;;;;;;;;;;21.38;73.3623;102953.9;;;;-68
2023/04/17 13:28:05;;;;;;;;;;;;;;;21.48;71.88965;102947.2;;;;-68
2023/04/17 13:33:05;;;;;;;;;;;;;;;21.44;73.07617;102945.9;;;;-69
2023/04/17 13:36:55;;;;;;;15.6;10.4;;;;;;;;;;;;;-67
2023/04/17 13:38:04;;;;;;;;;;;;;;;21.56;72.71973;102941.6;;;;-68
2023/04/17 13:43:05;;;;;;;;;;;;;;;21.79;72.25586;102934.6;;;;-69
2023/04/17 13:48:04;;;;;;;;;;;;;;;21.72;72.13184;102931.1;;;;-69
2023/04/17 13:53:04;;;;;;;;;;;;;;;21.9;73.08203;102928.4;;;;-68
2023/04/17 13:58:04;;;;;;;;;;;;;;;21.97;72.24023;102917.4;;;;-67
2023/04/17 14:03:05;;;;;;;;;;;;;;;22.09;71.34961;102916.6;;;;-68
2023/04/17 14:06:59;;;;;;;14;9.3;;;;;;;;;;;;;-68
2023/04/17 14:08:04;;;;;;;;;;;;;;;22.13;70.81934;102907.2;;;;-68
2023/04/17 14:13:05;;;;;;;;;;;;;;;22.18;70.30273;102913.5;;;;-67
2023/04/17 14:18:05;;;;;;;;;;;;;;;22.24;69.11621;102902.1;;;;-68
2023/04/17 14:23:06;;;;;;;;;;;;;;;22.24;69.43555;102892.6;;;;-71
2023/04/17 14:28:05;;;;;;;;;;;;;;;22.2;69.70117;102893.9;;;;-68
2023/04/17 14:33:04;;;;;;;;;;;;;;;22.06;70.42285;102895.6;;;;-69
2023/04/17 14:37:03;;;;;;;15.3;9.2;;;;;;;;;;;;;-68
2023/04/17 14:38:05;;;;;;;;;;;;;;;21.93;70.66309;102888.5;;;;-69
2023/04/17 14:43:05;;;;;;;;;;;;;;;22.06;70.52441;102879.5;;;;-69
2023/04/17 14:48:05;;;;;;;;;;;;;;;22.05;67.87793;102884.1;;;;-68
2023/04/17 14:53:05;;;;;;;;;;;;;;;22.02;68.85449;102879.2;;;;-69
2023/04/17 14:58:05;;;;;;;;;;;;;;;22.05;68.11719;102875.8;;;;-67
2023/04/17 15:03:05;;;;;;;;;;;;;;;21.9;68.90332;102877.3;;;;-70
2023/04/17 15:07:07;;;;;;;13.3;9.3;;;;;;;;;;;;;-69
2023/04/17 15:08:04;;;;;;;;;;;;;;;21.93;67.9873;102877.9;;;;-68
2023/04/17 15:13:05;;;;;;;;;;;;;;;21.88;67.36133;102877.4;;;;-69
2023/04/17 15:18:05;;;;;;;;;;;;;;;21.8;68.47754;102881.7;;;;-70
2023/04/17 15:23:04;;;;;;;;;;;;;;;21.77;67.24316;102871;;;;-69
2023/04/17 15:28:07;;;;;;;;;;;;;;;21.63;68.4082;102868.5;;;;-69
2023/04/17 15:33:05;;;;;;;;;;;;;;;21.68;67.60547;102865.3;;;;-68
2023/04/17 15:37:14;;;;;;;12.4;8.9;;;;;;;;;;;;;-68
2023/04/17 15:38:07;;;;;;;;;;;;;;;21.67;67.47852;102862;;;;-68
2023/04/17 15:43:09;;;;;;;;;;;;;;;21.55;66.50488;102862.9;;;;-69
2023/04/17 15:48:05;;;;;;;;;;;;;;;21.41;67.00781;102863.2;;;;-68
2023/04/17 15:53:08;;;;;;;;;;;;;;;21.13;67.7959;102865.1;;;;-68
2023/04/17 15:58:07;;;;;;;;;;;;;;;20.92;67.99121;102861.2;;;;-68
2023/04/17 16:03:06;;;;;;;;;;;;;;;20.87;67.08594;102862.2;;;;-68
2023/04/17 16:07:15;;;;;;;13.3;9.3;;;;;;;;;;;;;-69
2023/04/17 16:08:05;;;;;;;;;;;;;;;20.81;67.41797;102853.2;;;;-68
2023/04/17 16:13:05;;;;;;;;;;;;;;;20.74;67.65723;102853.6;;;;-67
2023/04/17 16:18:04;;;;;;;;;;;;;;;20.59;67.44141;102854.5;;;;-69
2023/04/17 16:23:05;;;;;;;;;;;;;;;20.45;67.2041;102855.4;;;;-68
2023/04/17 16:28:05;;;;;;;;;;;;;;;20.26;66.5957;102855.2;;;;-69
2023/04/17 16:33:05;;;;;;;;;;;;;;;20.05;67.16602;102851.6;;;;-68
2023/04/17 16:37:21;;;;;;;14.3;9.4;;;;;;;;;;;;;-68
2023/04/17 16:38:05;;;;;;;;;;;;;;;19.97;67.85938;102859.4;;;;-68
2023/04/17 16:43:04;;;;;;;;;;;;;;;19.8;67.77637;102853.6;;;;-70
2023/04/17 16:48:05;;;;;;;;;;;;;;;19.63;68.49902;102856.6;;;;-68
2023/04/17 16:53:05;;;;;;;;;;;;;;;19.45;67.93848;102851.1;;;;-68
2023/04/17 16:58:05;;;;;;;;;;;;;;;19.23;67.89453;102853.4;;;;-69
2023/04/17 17:03:05;;;;;;;;;;;;;;;19.01;68.75391;102859.9;;;;-69
2023/04/17 17:07:22;;;;;;;14.7;10;;;;;;;;;;;;;-69
2023/04/17 17:08:04;;;;;;;;;;;;;;;18.8;69.08398;102856.8;;;;-68
2023/04/17 17:13:05;;;;;;;;;;;;;;;18.6;67.66113;102854.5;;;;-67
2023/04/17 17:18:04;;;;;;;;;;;;;;;18.4;68.50293;102856.5;;;;-68
2023/04/17 17:23:05;;;;;;;;;;;;;;;18.19;68.78516;102860.6;;;;-68
2023/04/17 17:28:04;;;;;;;;;;;;;;;17.93;68.91602;102861.2;;;;-68
2023/04/17 17:33:04;;;;;;;;;;;;;;;17.69;69.8252;102869.3;;;;-69
2023/04/17 17:37:26;;;;;;;16.9;11;;;;;;;;;;;;;-69
2023/04/17 17:38:04;;;;;;;;;;;;;;;17.43;70.04492;102871.9;;;;-68
2023/04/17 17:43:05;;;;;;;;;;;;;;;17.22;70.5752;102873.5;;;;-69
2023/04/17 17:48:04;;;;;;;;;;;;;;;16.97;71.12012;102877.3;;;;-69
2023/04/17 17:53:04;;;;;;;;;;;;;;;16.69;70.75977;102879.7;;;;-71
2023/04/17 17:58:04;;;;;;;;;;;;;;;16.38;70.37305;102882.6;;;;-68
2023/04/17 18:03:04;;;;;;;;;;;;;;;16.14;70.88574;102877.3;;;;-69
2023/04/17 18:07:29;;;;;;;20.4;12;;;;;;;;;;;;;-68
2023/04/17 18:08:04;;;;;;;;;;;;;;;15.94;69.41602;102882.9;;;;-68
2023/04/17 18:13:04;;;;;;;;;;;;;;;15.62;71.01563;102880.1;;;;-68
2023/04/17 18:18:04;;;;;;;;;;;;;;;15.41;71.15039;102884.3;;;;-67
2023/04/17 18:23:04;;;;;;;;;;;;;;;15.16;72.07422;102889.6;;;;-67
2023/04/17 18:28:05;;;;;;;;;;;;;;;14.9;71.06738;102891;;;;-66
2023/04/17 18:33:04;;;;;;;;;;;;;;;14.62;70.90039;102896.1;;;;-67
2023/04/17 18:37:32;;;;;;;19.1;11.6;;;;;;;;;;;;;-68
2023/04/17 18:38:05;;;;;;;;;;;;;;;14.4;71.80469;102897.4;;;;-69
2023/04/17 18:43:12;;;;;;;;;;;;;;;14.15;71.39453;102903.2;;;;-68
2023/04/17 18:48:04;;;;;;;;;;;;;;;13.91;71.21094;102913.1;;;;-68
2023/04/17 18:53:05;;;;;;;;;;;;;;;13.67;71.69727;102913.1;;;;-66
2023/04/17 18:58:04;;;;;;;;;;;;;;;13.43;71.65918;102920.3;;;;-67
2023/04/17 19:03:05;;;;;;;;;;;;;;;13.22;71.82422;102916.3;;;;-67
2023/04/17 19:07:34;;;;;;;19.8;10.9;;;;;;;;;;;;;-67
2023/04/17 19:08:04;;;;;;;;;;;;;;;12.97;72.11914;102916.4;;;;-68
2023/04/17 19:13:08;;;;;;;;;;;;;;;12.74;71.99219;102917.6;;;;-69
2023/04/17 19:18:05;;;;;;;;;;;;;;;12.5;71.08301;102919.3;;;;-67
2023/04/17 19:23:04;;;;;;;;;;;;;;;12.26;71.32324;102924.5;;;;-69
2023/04/17 19:28:04;;;;;;;;;;;;;;;12.08;71.7041;102929.7;;;;-67
2023/04/17 19:33:05;;;;;;;;;;;;;;;11.87;71.69336;102929;;;;-66
2023/04/17 19:37:37;;;;;;;17.5;10.5;;;;;;;;;;;;;-66
2023/04/17 19:38:04;;;;;;;;;;;;;;;11.67;71.7832;102930.7;;;;-67
2023/04/17 19:43:04;;;;;;;;;;;;;;;11.5;71.85449;102931.4;;;;-66
2023/04/17 19:48:04;;;;;;;;;;;;;;;11.35;72.15137;102929.5;;;;-67
2023/04/17 19:53:05;;;;;;;;;;;;;;;11.19;72.22461;102930.8;;;;-67
2023/04/17 19:58:04;;;;;;;;;;;;;;;11.01;72.49609;102926.6;;;;-74
2023/04/17 20:03:04;;;;;;;;;;;;;;;10.88;72.60742;102930.7;;;;-73
2023/04/17 20:07:42;;;;;;;17;10.5;;;;;;;;;;;;;-73
2023/04/17 20:08:05;;;;;;;;;;;;;;;10.72;72.83594;102935.5;;;;-72
2023/04/17 20:13:05;;;;;;;;;;;;;;;10.6;72.94922;102940.9;;;;-72
2023/04/17 20:18:05;;;;;;;;;;;;;;;10.46;73.3584;102945.9;;;;-73
2023/04/17 20:23:05;;;;;;;;;;;;;;;10.36;73.35352;102948;;;;-72
2023/04/17 20:28:05;;;;;;;;;;;;;;;10.24;73.22266;102947.3;;;;-72
2023/04/17 20:33:04;;;;;;;;;;;;;;;10.11;73.79785;102943.9;;;;-71
2023/04/17 20:37:43;;;;;;;18.5;9.1;;;;;;;;;;;;;-75
2023/04/17 20:38:05;;;;;;;;;;;;;;;9.99;73.65723;102951.5;;;;-74
2023/04/17 20:43:04;;;;;;;;;;;;;;;9.88;74.02637;102944.9;;;;-73
2023/04/17 20:48:06;;;;;;;;;;;;;;;9.79;73.79883;102941.2;;;;-73
2023/04/17 20:53:05;;;;;;;;;;;;;;;9.67;74.4541;102934.3;;;;-71
2023/04/17 20:58:04;;;;;;;;;;;;;;;9.56;74.42383;102935.8;;;;-72
2023/04/17 21:03:05;;;;;;;;;;;;;;;9.45;74.30762;102936.1;;;;-71
2023/04/17 21:07:42;;;;;;;17.8;8.8;;;;;;;;;;;;;-73
2023/04/17 21:08:05;;;;;;;;;;;;;;;9.35;74.34375;102933;;;;-73
2023/04/17 21:13:05;;;;;;;;;;;;;;;9.29;74.76465;102935.2;;;;-73
2023/04/17 21:18:05;;;;;;;;;;;;;;;9.2;74.87012;102926.5;;;;-75
2023/04/17 21:23:05;;;;;;;;;;;;;;;9.1;74.45703;102928;;;;-74
2023/04/17 21:28:04;;;;;;;;;;;;;;;9.04;74.67676;102927.1;;;;-73
2023/04/17 21:33:04;;;;;;;;;;;;;;;8.96;75.16113;102932.5;;;;-74
2023/04/17 21:37:44;;;;;;;15.2;8.2;;;;;;;;;;;;;-73
2023/04/17 21:38:05;;;;;;;;;;;;;;;8.87;75.2334;102931.4;;;;-73
2023/04/17 21:43:04;;;;;;;;;;;;;;;8.82;74.92578;102929.6;;;;-73
2023/04/17 21:48:04;;;;;;;;;;;;;;;8.74;75.33301;102931.8;;;;-73
2023/04/17 21:53:04;;;;;;;;;;;;;;;8.67;75.0127;102926.5;;;;-75
2023/04/17 21:58:05;;;;;;;;;;;;;;;8.61;75.46484;102925;;;;-74
2023/04/17 22:03:04;;;;;;;;;;;;;;;8.55;75.15625;102925.1;;;;-74
2023/04/17 22:07:45;;;;;;;14.9;7.9;;;;;;;;;;;;;-75
2023/04/17 22:08:05;;;;;;;;;;;;;;;8.49;75.33398;102926.5;;;;-74
2023/04/17 22:13:05;;;;;;;;;;;;;;;8.42;75.4082;102923.5;;;;-73
2023/04/17 22:18:05;;;;;;;;;;;;;;;8.38;75.55762;102924.5;;;;-72
2023/04/17 22:23:16;;;;;;;;;;;;;;;8.33;75.61621;102927.4;;;;-69
2023/04/17 22:28:19;;;;;;;;;;;;;;;8.28;75.2207;102926.7;;;;-70
2023/04/17 22:33:16;;;;;;;;;;;;;;;8.28;75.83789;102927.1;;;;-69
2023/04/17 22:37:57;;;;;;;15.2;7.3;;;;;;;;;;;;;-71
2023/04/17 22:43:05;;;;;;;;;;;;;;;8.24;75.73145;102927.7;;;;-69
2023/04/17 22:48:05;;;;;;;;;;;;;;;8.18;75.53418;102933.6;;;;-70
2023/04/17 22:53:06;;;;;;;;;;;;;;;8.16;75.7959;102932.2;;;;-69
2023/04/17 22:58:09;;;;;;;;;;;;;;;8.14;75.66992;102933.6;;;;-70
2023/04/17 23:03:05;;;;;;;;;;;;;;;8.14;75.83496;102931.5;;;;-69
2023/04/17 23:07:47;;;;;;;15.3;7.8;;;;;;;;;;;;;-69
2023/04/17 23:08:04;;;;;;;;;;;;;;;8.1;75.91504;102935.9;;;;-69
2023/04/17 23:13:04;;;;;;;;;;;;;;;8.08;75.98926;102935.6;;;;-71
2023/04/17 23:18:04;;;;;;;;;;;;;;;8.09;76.03613;102939.4;;;;-70
2023/04/17 23:23:04;;;;;;;;;;;;;;;8.09;75.88086;102949.2;;;;-69
2023/04/17 23:28:05;;;;;;;;;;;;;;;8.06;75.79883;102945.4;;;;-70
2023/04/17 23:33:05;;;;;;;;;;;;;;;8.02;76.10059;102952.4;;;;-69
2023/04/17 23:37:48;;;;;;;13.4;7;;;;;;;;;;;;;-69
2023/04/17 23:38:04;;;;;;;;;;;;;;;8.04;76.07031;102955.9;;;;-70
2023/04/17 23:43:04;;;;;;;;;;;;;;;8.03;75.7832;102951.6;;;;-70
2023/04/17 23:48:05;;;;;;;;;;;;;;;7.98;75.54395;102959.5;;;;-69
2023/04/17 23:53:04;;;;;;;;;;;;;;;7.98;75.38965;102952.8;;;;-68
2023/04/17 23:58:04;;;;;;;;;;;;;;;7.98;75.2002;102957.4;;;;-69
